createdAt,value
2019-04-11T00:00:38.049Z,62.10
2019-04-11T00:03:07.147Z,62.30
2019-04-11T00:05:37.073Z,62.40
2019-04-11T00:08:19.659Z,62.40
2019-04-11T00:10:49.232Z,62.50
2019-04-11T00:13:23.795Z,62.50
2019-04-11T00:15:49.534Z,62.40
2019-04-11T00:18:18.710Z,62.30
2019-04-11T00:20:48.496Z,62.10
2019-04-11T00:23:18.367Z,62.10
2019-04-11T00:25:47.618Z,61.80
2019-04-11T00:28:17.392Z,62.00
2019-04-11T00:30:46.908Z,61.90
2019-04-11T00:33:16.182Z,61.80
2019-04-11T00:35:46.047Z,61.70
2019-04-11T00:38:15.986Z,61.80
2019-04-11T00:40:45.813Z,61.90
2019-04-11T00:43:27.143Z,61.80
2019-04-11T00:45:46.074Z,62.00
2019-04-11T00:48:15.417Z,62.30
2019-04-11T00:50:45.475Z,61.80
2019-04-11T00:53:15.936Z,61.60
2019-04-11T00:55:46.029Z,61.20
2019-04-11T00:58:15.341Z,61.20
2019-04-11T01:00:45.027Z,61.70
2019-04-11T01:03:14.246Z,61.80
2019-04-11T01:05:43.579Z,61.40
2019-04-11T01:08:13.679Z,61.40
2019-04-11T01:10:43.609Z,60.50
2019-04-11T01:13:14.083Z,61.40
2019-04-11T01:15:48.892Z,61.40
2019-04-11T01:18:19.268Z,61.50
2019-04-11T01:20:49.110Z,61.90
2019-04-11T01:23:18.546Z,62.10
2019-04-11T01:25:48.538Z,62.20
2019-04-11T01:28:18.555Z,62.10
2019-04-11T01:30:55.489Z,61.90
2019-04-11T01:33:24.834Z,61.60
2019-04-11T01:35:53.922Z,61.50
2019-04-11T01:38:24.190Z,61.40
2019-04-11T01:40:54.361Z,61.20
2019-04-11T01:43:24.091Z,61.00
2019-04-11T01:45:53.779Z,60.70
2019-04-11T01:48:27.884Z,61.20
2019-04-11T01:50:57.166Z,61.30
2019-04-11T01:53:26.839Z,61.10
2019-04-11T01:55:56.863Z,61.50
2019-04-11T01:58:26.778Z,61.50
2019-04-11T02:01:19.516Z,61.40
2019-04-11T02:03:57.316Z,61.30
2019-04-11T02:06:26.743Z,61.40
2019-04-11T02:08:55.964Z,61.60
2019-04-11T02:11:27.692Z,61.40
2019-04-11T02:14:08.021Z,61.40
2019-04-11T02:16:29.241Z,61.70
2019-04-11T02:18:59.486Z,61.30
2019-04-11T02:21:29.564Z,61.10
2019-04-11T02:24:17.470Z,61.20
2019-04-11T02:26:58.708Z,61.60
2019-04-11T02:29:28.242Z,61.10
2019-04-11T02:32:01.255Z,61.10
2019-04-11T02:34:29.676Z,61.20
2019-04-11T02:37:00.476Z,61.50
2019-04-11T02:39:32.905Z,61.40
2019-04-11T02:42:01.428Z,61.40
2019-04-11T02:44:45.453Z,61.20
2019-04-11T02:47:09.538Z,61.20
2019-04-11T02:49:35.079Z,61.00
2019-04-11T02:52:04.559Z,61.10
2019-04-11T02:54:33.897Z,60.80
2019-04-11T02:57:03.660Z,60.90
2019-04-11T02:59:34.365Z,61.10
2019-04-11T03:02:04.621Z,61.60
2019-04-11T03:04:34.784Z,61.10
2019-04-11T03:07:05.700Z,61.40
2019-04-11T03:09:35.208Z,61.20
2019-04-11T03:12:05.193Z,61.20
2019-04-11T03:14:49.145Z,61.20
2019-04-11T03:17:14.061Z,61.10
2019-04-11T03:19:47.704Z,60.90
2019-04-11T03:22:08.096Z,60.90
2019-04-11T03:24:38.604Z,60.70
2019-04-11T03:27:09.403Z,60.70
2019-04-11T03:29:38.707Z,61.00
2019-04-11T03:35:26.958Z,61.00
2019-04-11T03:37:49.498Z,61.10
2019-04-11T03:39:59.358Z,61.40
2019-04-11T03:42:29.575Z,61.40
2019-04-11T03:44:47.098Z,61.80
2019-04-11T03:47:27.846Z,61.40
2019-04-11T03:49:51.085Z,60.90
2019-04-11T03:52:15.041Z,61.10
2019-04-11T03:54:45.528Z,60.40
2019-04-11T03:57:15.750Z,60.50
2019-04-11T03:59:45.973Z,60.40
2019-04-11T04:02:16.791Z,60.30
2019-04-11T04:04:46.084Z,60.40
2019-04-11T04:07:16.682Z,60.40
2019-04-11T04:09:46.284Z,60.40
2019-04-11T04:12:15.600Z,60.20
2019-04-11T04:15:08.477Z,60.30
2019-04-11T04:17:55.336Z,60.30
2019-04-11T04:20:45.954Z,60.70
2019-04-11T04:23:18.959Z,60.60
2019-04-11T04:25:49.354Z,60.40
2019-04-11T04:28:19.145Z,60.90
2019-04-11T04:30:49.360Z,61.20
2019-04-11T04:33:20.306Z,61.20
2019-04-11T04:35:51.569Z,61.40
2019-04-11T04:38:21.180Z,61.60
2019-04-11T04:41:05.730Z,61.60
2019-04-11T04:43:22.615Z,61.60
2019-04-11T04:46:08.775Z,61.80
2019-04-11T04:48:26.583Z,61.60
2019-04-11T04:50:56.827Z,61.60
2019-04-11T04:53:27.709Z,61.50
2019-04-11T04:55:55.374Z,61.40
2019-04-11T04:58:26.287Z,61.60
2019-04-11T05:00:56.773Z,60.90
2019-04-11T05:03:26.720Z,61.90
2019-04-11T05:05:56.305Z,61.20
2019-04-11T05:08:26.954Z,61.00
2019-04-11T05:10:57.901Z,63.60
2019-04-11T05:13:27.954Z,60.70
2019-04-11T05:16:06.970Z,60.50
2019-04-11T05:18:28.313Z,60.70
2019-04-11T05:20:57.527Z,60.80
2019-04-11T05:23:27.675Z,60.90
2019-04-11T05:25:57.170Z,61.20
2019-04-11T05:28:27.613Z,61.40
2019-04-11T05:30:56.950Z,61.20
2019-04-11T05:33:27.268Z,61.40
2019-04-11T05:35:56.802Z,61.80
2019-04-11T05:38:27.230Z,61.00
2019-04-11T05:40:56.706Z,61.10
2019-04-11T05:43:29.252Z,61.20
2019-04-11T05:45:58.219Z,60.80
2019-04-11T05:48:43.009Z,61.10
2019-04-11T05:51:13.044Z,60.90
2019-04-11T05:53:42.706Z,61.20
2019-04-11T05:56:16.101Z,61.00
2019-04-11T05:58:47.006Z,61.00
2019-04-11T06:01:22.287Z,61.40
2019-04-11T06:03:53.568Z,61.50
2019-04-11T06:06:36.381Z,61.40
2019-04-11T06:09:08.930Z,61.50
2019-04-11T06:11:58.964Z,61.70
2019-04-11T06:14:35.400Z,61.70
2019-04-11T06:17:07.589Z,61.60
2019-04-11T06:19:50.727Z,61.60
2019-04-11T06:22:19.999Z,61.40
2019-04-11T06:25:19.245Z,61.90
2019-04-11T06:27:53.942Z,61.90
2019-04-11T06:30:59.042Z,61.70
2019-04-11T06:33:34.506Z,62.30
2019-04-11T06:36:23.371Z,62.50
2019-04-11T06:39:12.710Z,63.00
2019-04-11T06:42:01.201Z,62.30
2019-04-11T06:44:52.244Z,62.30
2019-04-11T06:47:49.602Z,62.00
2019-04-11T06:50:33.425Z,62.10
2019-04-11T06:53:02.994Z,62.30
2019-04-11T06:55:50.904Z,62.50
2019-04-11T06:58:28.138Z,62.80
2019-04-11T07:01:01.546Z,63.00
2019-04-11T07:03:34.470Z,62.60
2019-04-11T07:06:09.175Z,62.30
2019-04-11T07:08:47.609Z,61.30
2019-04-11T07:11:17.880Z,60.70
2019-04-11T07:13:53.674Z,60.70
2019-04-11T07:16:22.866Z,60.70
2019-04-11T07:19:13.750Z,59.80
2019-04-11T07:21:44.052Z,60.00
2019-04-11T07:24:43.414Z,60.10
2019-04-11T07:27:15.980Z,58.80
2019-04-11T07:30:03.153Z,57.60
2019-04-11T07:32:32.397Z,56.20
2019-04-11T07:35:19.337Z,56.60
2019-04-11T07:37:51.156Z,56.30
2019-04-11T07:40:39.391Z,55.60
2019-04-11T07:43:18.785Z,55.10
2019-04-11T07:46:18.778Z,55.60
2019-04-11T07:48:47.874Z,54.30
2019-04-11T07:51:36.444Z,53.90
2019-04-11T07:54:07.905Z,53.70
2019-04-11T07:56:48.942Z,53.50
2019-04-11T07:59:27.253Z,53.60
2019-04-11T08:02:14.087Z,53.20
2019-04-11T08:05:05.265Z,53.40
2019-04-11T08:07:54.825Z,52.30
2019-04-11T08:10:30.914Z,50.60
2019-04-11T08:13:02.365Z,49.00
2019-04-11T08:15:53.729Z,48.60
2019-04-11T08:18:34.923Z,49.80
2019-04-11T08:21:22.218Z,49.50
2019-04-11T08:23:54.105Z,46.70
2019-04-11T08:26:46.390Z,45.30
2019-04-11T08:29:16.060Z,46.60
2019-04-11T08:32:03.076Z,46.80
2019-04-11T08:34:35.490Z,46.60
2019-04-11T08:37:32.014Z,46.20
2019-04-11T08:40:01.808Z,46.40
2019-04-11T08:42:50.864Z,46.60
2019-04-11T08:45:21.551Z,45.00
2019-04-11T08:47:54.531Z,44.20
2019-04-11T08:50:26.209Z,44.70
2019-04-11T08:53:12.978Z,44.40
2019-04-11T08:55:53.631Z,44.80
2019-04-11T08:58:28.758Z,44.60
2019-04-11T09:01:00.720Z,46.70
2019-04-11T09:04:05.220Z,43.40
2019-04-11T09:06:32.616Z,42.60
2019-04-11T09:09:21.032Z,42.30
2019-04-11T09:11:56.243Z,42.20
2019-04-11T09:14:44.536Z,42.00
2019-04-11T09:17:19.920Z,41.30
2019-04-11T09:20:07.922Z,40.50
2019-04-11T09:22:47.121Z,40.80
2019-04-11T09:25:35.405Z,40.20
2019-04-11T09:28:15.420Z,40.70
2019-04-11T09:31:17.028Z,38.10
2019-04-11T09:33:59.456Z,37.10
2019-04-11T09:37:03.253Z,35.00
2019-04-11T09:39:51.333Z,34.70
2019-04-11T09:42:39.451Z,35.50
2019-04-11T09:45:37.400Z,36.20
2019-04-11T09:48:42.091Z,36.50
2019-04-11T09:51:34.029Z,37.20
2019-04-11T09:54:22.080Z,37.70
2019-04-11T09:57:10.189Z,37.60
2019-04-11T09:59:58.442Z,37.80
2019-04-11T10:03:01.940Z,37.80
2019-04-11T10:05:53.124Z,37.80
2019-04-11T10:08:43.557Z,38.50
2019-04-11T10:11:30.810Z,39.50
2019-04-11T10:14:09.263Z,39.50
2019-04-11T10:16:56.337Z,39.40
2019-04-11T10:19:40.197Z,38.80
2019-04-11T10:22:43.988Z,38.90
2019-04-11T10:25:19.067Z,38.10
2019-04-11T10:28:06.066Z,36.80
2019-04-11T10:31:00.346Z,36.50
2019-04-11T10:33:57.558Z,36.10
2019-04-11T10:36:45.883Z,36.00
2019-04-11T10:39:33.281Z,38.20
2019-04-11T10:42:10.870Z,38.40
2019-04-11T10:45:14.228Z,39.50
2019-04-11T10:47:43.357Z,38.60
2019-04-11T10:50:37.342Z,37.10
2019-04-11T10:53:06.849Z,36.10
2019-04-11T10:56:04.293Z,36.10
2019-04-11T10:58:45.851Z,36.10
2019-04-11T11:01:33.752Z,35.40
2019-04-11T11:04:11.563Z,34.80
2019-04-11T11:06:41.971Z,35.70
2019-04-11T11:09:32.232Z,36.00
2019-04-11T11:12:15.194Z,36.90
2019-04-11T11:15:03.078Z,34.80
2019-04-11T11:18:20.688Z,33.20
2019-04-11T11:20:48.233Z,33.40
2019-04-11T11:23:20.348Z,33.80
2019-04-11T11:26:05.042Z,32.80
2019-04-11T11:28:37.037Z,32.00
2019-04-11T11:31:24.412Z,32.10
2019-04-11T11:33:54.393Z,32.70
2019-04-11T11:36:43.770Z,33.10
2019-04-11T11:39:28.916Z,33.10
2019-04-11T11:42:16.027Z,33.60
2019-04-11T11:44:53.146Z,34.30
2019-04-11T11:47:41.567Z,33.80
2019-04-11T11:50:17.918Z,33.60
2019-04-11T11:53:04.784Z,34.00
2019-04-11T11:55:35.558Z,33.50
2019-04-11T11:58:23.689Z,32.40
2019-04-11T12:00:55.550Z,32.80
2019-04-11T12:03:42.710Z,31.70
2019-04-11T12:06:12.696Z,30.20
2019-04-11T12:09:02.485Z,30.30
2019-04-11T12:11:32.373Z,29.70
2019-04-11T12:14:22.162Z,30.00
2019-04-11T12:17:14.272Z,30.10
2019-04-11T12:20:01.632Z,29.70
2019-04-11T12:22:26.480Z,30.90
2019-04-11T12:25:14.530Z,31.00
2019-04-11T12:28:14.611Z,31.30
2019-04-11T12:30:44.955Z,31.60
2019-04-11T12:33:48.436Z,32.00
2019-04-11T12:36:21.020Z,32.10
2019-04-11T12:39:15.365Z,30.90
2019-04-11T12:41:50.606Z,29.50
2019-04-11T12:44:50.841Z,28.80
2019-04-11T12:47:39.468Z,28.60
2019-04-11T12:50:30.748Z,29.50
2019-04-11T12:53:20.010Z,29.80
2019-04-11T12:56:02.698Z,29.90
2019-04-11T12:58:47.346Z,28.70
2019-04-11T13:01:44.530Z,28.20
2019-04-11T13:04:31.366Z,28.50
2019-04-11T13:07:31.805Z,27.60
2019-04-11T13:10:11.181Z,28.20
2019-04-11T13:13:05.036Z,26.70
2019-04-11T13:15:37.443Z,25.80
2019-04-11T13:18:31.666Z,25.70
2019-04-11T13:21:13.806Z,26.20
2019-04-11T13:24:01.938Z,25.80
2019-04-11T13:27:05.093Z,25.90
2019-04-11T13:29:59.277Z,26.30
2019-04-11T13:32:41.960Z,26.80
2019-04-11T13:35:19.259Z,27.40
2019-04-11T13:38:25.794Z,27.60
2019-04-11T13:41:20.413Z,27.90
2019-04-11T13:43:55.750Z,27.80
2019-04-11T13:46:47.053Z,27.70
2019-04-11T13:49:50.677Z,28.00
2019-04-11T13:52:38.750Z,28.30
2019-04-11T13:55:09.545Z,28.50
2019-04-11T13:57:57.682Z,28.70
2019-04-11T14:00:44.295Z,28.80
2019-04-11T14:03:44.386Z,28.40
2019-04-11T14:06:22.013Z,28.70
2019-04-11T14:09:25.436Z,29.30
2019-04-11T14:11:58.501Z,30.00
2019-04-11T14:14:35.876Z,29.70
2019-04-11T14:17:26.957Z,30.60
2019-04-11T14:20:13.809Z,31.00
2019-04-11T14:23:15.018Z,30.90
2019-04-11T14:26:02.513Z,30.00
2019-04-11T14:28:38.438Z,30.00
2019-04-11T14:31:29.383Z,29.60
2019-04-11T14:34:17.521Z,29.20
2019-04-11T14:36:59.027Z,28.50
2019-04-11T14:39:30.537Z,28.50
2019-04-11T14:42:18.724Z,28.70
2019-04-11T14:44:48.701Z,28.80
2019-04-11T14:47:51.861Z,29.10
2019-04-11T14:50:20.954Z,28.40
2019-04-11T14:53:24.173Z,28.90
2019-04-11T14:55:59.941Z,29.10
2019-04-11T14:58:53.619Z,28.10
2019-04-11T15:01:23.692Z,28.50
2019-04-11T15:04:13.615Z,29.60
2019-04-11T15:06:46.290Z,29.70
2019-04-11T15:09:34.385Z,29.60
2019-04-11T15:12:10.408Z,29.90
2019-04-11T15:14:57.373Z,30.10
2019-04-11T15:17:34.801Z,30.70
2019-04-11T15:20:22.341Z,32.50
2019-04-11T15:23:01.670Z,33.00
2019-04-11T15:26:08.674Z,33.50
2019-04-11T15:28:50.858Z,33.10
2019-04-11T15:31:39.820Z,34.10
2019-04-11T15:34:26.634Z,34.30
2019-04-11T15:37:30.106Z,34.20
2019-04-11T15:40:10.481Z,34.60
2019-04-11T15:42:57.410Z,36.00
2019-04-11T15:45:40.345Z,36.40
2019-04-11T15:48:40.790Z,36.40
2019-04-11T15:51:38.203Z,38.00
2019-04-11T15:54:27.506Z,37.30
2019-04-11T15:57:14.482Z,37.30
2019-04-11T16:00:08.845Z,37.10
2019-04-11T16:03:06.113Z,36.50
2019-04-11T16:05:55.254Z,37.10
2019-04-11T16:08:38.926Z,40.20
2019-04-11T16:11:23.626Z,38.70
2019-04-11T16:14:10.804Z,36.60
2019-04-11T16:17:05.894Z,37.50
2019-04-11T16:19:55.502Z,37.30
2019-04-11T16:22:43.385Z,36.80
2019-04-11T16:25:14.906Z,36.80
2019-04-11T16:28:07.287Z,37.20
2019-04-11T16:30:48.345Z,37.40
2019-04-11T16:33:40.121Z,37.80
2019-04-11T16:36:13.338Z,37.90
2019-04-11T16:39:01.459Z,38.30
2019-04-11T16:41:48.419Z,38.70
2019-04-11T16:44:25.131Z,39.10
2019-04-11T16:47:20.373Z,39.60
2019-04-11T16:49:52.385Z,39.00
2019-04-11T16:52:21.698Z,39.00
2019-04-11T16:54:50.811Z,39.70
2019-04-11T16:57:21.625Z,39.70
2019-04-11T16:59:50.838Z,39.60
2019-04-11T17:02:21.810Z,39.90
2019-04-11T17:04:55.665Z,40.50
2019-04-11T17:07:43.105Z,40.80
2019-04-11T17:10:15.686Z,41.00
2019-04-11T17:12:44.774Z,40.80
2019-04-11T17:15:13.987Z,41.00
2019-04-11T17:17:43.146Z,40.90
2019-04-11T17:20:12.464Z,41.70
2019-04-11T17:22:41.658Z,41.00
2019-04-11T17:25:10.817Z,41.10
2019-04-11T17:27:40.033Z,41.30
2019-04-11T17:30:09.186Z,41.30
2019-04-11T17:32:38.355Z,41.70
2019-04-11T17:35:07.561Z,41.80
2019-04-11T17:37:36.830Z,41.70
2019-04-11T17:40:07.026Z,42.00
2019-04-11T17:42:37.041Z,41.60
2019-04-11T17:45:10.928Z,42.50
2019-04-11T17:47:40.146Z,42.70
2019-04-11T17:50:11.417Z,43.00
2019-04-11T17:52:44.986Z,43.30
2019-04-11T17:55:14.230Z,43.40
2019-04-11T17:57:43.410Z,44.00
2019-04-11T18:00:23.043Z,44.10
2019-04-11T18:02:52.190Z,43.70
2019-04-11T18:05:22.731Z,44.10
2019-04-11T18:07:54.365Z,43.90
2019-04-11T18:10:26.456Z,43.50
2019-04-11T18:12:57.542Z,43.50
2019-04-11T18:15:28.804Z,43.50
2019-04-11T18:17:57.758Z,43.80
2019-04-11T18:20:27.382Z,44.60
2019-04-11T18:22:56.751Z,44.50
2019-04-11T18:25:25.918Z,44.60
2019-04-11T18:27:55.013Z,45.00
2019-04-11T18:30:24.236Z,45.20
2019-04-11T18:32:53.416Z,45.60
2019-04-11T18:35:24.899Z,45.90
2019-04-11T18:37:54.081Z,45.20
2019-04-11T18:40:23.242Z,45.80
2019-04-11T18:42:52.441Z,45.90
2019-04-11T18:45:21.623Z,46.20
2019-04-11T18:47:50.778Z,46.30
2019-04-11T18:50:22.767Z,46.60
2019-04-11T18:52:50.914Z,47.00
2019-04-11T18:55:20.483Z,47.30
2019-04-11T18:57:49.664Z,47.60
2019-04-11T19:00:20.262Z,47.90
2019-04-11T19:02:49.780Z,47.90
2019-04-11T19:05:28.190Z,48.10
2019-04-11T19:07:49.979Z,48.40
2019-04-11T19:10:19.154Z,48.50
2019-04-11T19:12:48.331Z,48.60
2019-04-11T19:15:17.594Z,48.70
2019-04-11T19:17:47.134Z,48.60
2019-04-11T19:20:18.714Z,49.30
2019-04-11T19:22:47.429Z,49.40
2019-04-11T19:25:16.540Z,49.60
2019-04-11T19:27:49.982Z,50.30
2019-04-11T19:30:16.702Z,50.00
2019-04-11T19:32:45.858Z,50.20
2019-04-11T19:35:15.041Z,50.60
2019-04-11T19:37:44.202Z,50.80
2019-04-11T19:40:16.115Z,50.90
2019-04-11T19:42:44.202Z,51.00
2019-04-11T19:45:13.374Z,51.30
2019-04-11T19:47:43.726Z,51.80
2019-04-11T19:50:13.035Z,51.50
2019-04-11T19:52:45.750Z,52.10
2019-04-11T19:55:44.429Z,52.30
2019-04-11T19:58:13.655Z,52.40
2019-04-11T20:00:43.151Z,52.60
2019-04-11T20:03:12.322Z,52.70
2019-04-11T20:05:41.427Z,52.80
2019-04-11T20:08:12.365Z,52.30
2019-04-11T20:10:41.498Z,52.90
2019-04-11T20:13:10.757Z,52.40
2019-04-11T20:15:42.172Z,53.00
2019-04-11T20:18:10.763Z,53.00
2019-04-11T20:20:39.934Z,53.20
2019-04-11T20:23:10.906Z,53.30
2019-04-11T20:25:39.948Z,53.60
2019-04-11T20:28:10.344Z,53.90
2019-04-11T20:30:39.589Z,53.90
2019-04-11T20:33:08.757Z,54.00
2019-04-11T20:35:40.020Z,54.10
2019-04-11T20:38:08.766Z,54.20
2019-04-11T20:40:37.927Z,54.10
2019-04-11T20:43:07.102Z,54.30
2019-04-11T20:45:38.414Z,54.40
2019-04-11T20:48:07.519Z,54.30
2019-04-11T20:50:36.749Z,54.10
2019-04-11T20:53:12.729Z,54.40
2019-04-11T20:55:39.063Z,54.80
2019-04-11T20:58:09.900Z,54.60
2019-04-11T21:00:49.641Z,54.70
2019-04-11T21:03:09.678Z,54.90
2019-04-11T21:05:38.852Z,55.00
2019-04-11T21:08:08.025Z,54.80
2019-04-11T21:10:37.126Z,55.70
2019-04-11T21:13:07.155Z,55.30
2019-04-11T21:15:37.130Z,55.30
2019-04-11T21:18:06.295Z,55.70
2019-04-11T21:20:35.506Z,55.90
2019-04-11T21:23:04.684Z,55.20
2019-04-11T21:25:33.850Z,55.70
2019-04-11T21:28:03.030Z,55.70
2019-04-11T21:30:32.281Z,55.60
2019-04-11T21:33:03.769Z,55.50
2019-04-11T21:35:33.393Z,55.10
2019-04-11T21:38:03.144Z,55.00
2019-04-11T21:40:35.674Z,55.00
2019-04-11T21:43:05.925Z,55.10
2019-04-11T21:45:35.894Z,55.20
2019-04-11T21:48:05.758Z,55.10
2019-04-11T21:50:40.176Z,54.90
2019-04-11T21:53:06.477Z,55.30
2019-04-11T21:55:35.651Z,54.80
2019-04-11T21:58:04.837Z,55.10
2019-04-11T22:00:39.801Z,54.90
2019-04-11T22:03:09.447Z,54.60
2019-04-11T22:05:38.996Z,54.40
2019-04-11T22:08:08.173Z,54.80
2019-04-11T22:10:40.119Z,54.60
2019-04-11T22:13:10.095Z,55.30
2019-04-11T22:15:42.107Z,55.20
2019-04-11T22:18:09.742Z,55.40
2019-04-11T22:20:38.902Z,55.40
2019-04-11T22:23:08.130Z,55.70
2019-04-11T22:25:38.173Z,55.90
2019-04-11T22:28:07.339Z,56.20
2019-04-11T22:30:36.497Z,56.40
2019-04-11T22:33:39.907Z,56.10
2019-04-11T22:36:09.068Z,56.60
2019-04-11T22:38:38.226Z,56.70
2019-04-11T22:41:07.422Z,56.80
2019-04-11T22:43:38.225Z,57.00
2019-04-11T22:46:08.028Z,57.20
2019-04-11T22:48:39.018Z,57.20
2019-04-11T22:51:08.787Z,57.00
2019-04-11T22:53:40.767Z,56.90
2019-04-11T22:56:11.767Z,57.20
2019-04-11T22:58:43.453Z,57.30
2019-04-11T23:01:14.023Z,57.30
2019-04-11T23:03:49.106Z,57.60
2019-04-11T23:06:18.273Z,57.60
2019-04-11T23:08:49.074Z,57.50
2019-04-11T23:11:18.369Z,57.70
2019-04-11T23:13:47.521Z,57.90
2019-04-11T23:16:16.692Z,57.80
2019-04-11T23:18:45.865Z,58.00
2019-04-11T23:21:15.327Z,58.30
2019-04-11T23:23:44.493Z,58.20
2019-04-11T23:26:13.578Z,57.80
2019-04-11T23:28:45.807Z,57.80
2019-04-11T23:31:13.586Z,57.70
2019-04-11T23:33:42.774Z,57.80
2019-04-11T23:36:11.969Z,58.10
2019-04-11T23:38:41.081Z,58.40
2019-04-11T23:41:10.205Z,57.90
2019-04-11T23:43:39.365Z,57.60
2019-04-11T23:46:08.533Z,57.90
2019-04-11T23:48:37.705Z,58.60
2019-04-11T23:51:06.812Z,59.40
2019-04-11T23:53:35.966Z,59.70
2019-04-11T23:56:05.133Z,59.70
2019-04-11T23:58:34.341Z,58.80
